createdAt,value
2019-02-12T00:00:32.289Z,31.07
2019-02-12T00:03:01.545Z,30.90
2019-02-12T00:05:30.806Z,33.67
2019-02-12T00:08:00.001Z,29.40
2019-02-12T00:10:29.254Z,32.58
2019-02-12T00:12:58.939Z,31.35
2019-02-12T00:15:29.765Z,38.80
2019-02-12T00:17:58.992Z,33.42
2019-02-12T00:20:28.159Z,26.48
2019-02-12T00:22:57.354Z,19.77
2019-02-12T00:25:26.591Z,29.42
2019-02-12T00:27:55.761Z,36.70
2019-02-12T00:30:24.955Z,21.25
2019-02-12T00:32:54.125Z,36.42
2019-02-12T00:35:23.325Z,27.70
2019-02-12T00:37:52.558Z,32.45
2019-02-12T00:40:21.724Z,56.15
2019-02-12T00:42:50.912Z,31.37
2019-02-12T00:45:20.174Z,51.33
2019-02-12T00:47:49.343Z,25.62
2019-02-12T00:50:18.512Z,36.73
2019-02-12T00:52:47.715Z,36.77
2019-02-12T00:55:18.535Z,28.27
2019-02-12T00:57:47.808Z,26.93
2019-02-12T01:00:17.054Z,47.17
2019-02-12T01:02:46.230Z,26.12
2019-02-12T01:05:15.536Z,29.20
2019-02-12T01:07:44.726Z,42.43
2019-02-12T01:10:14.046Z,45.27
2019-02-12T01:12:43.235Z,25.82
2019-02-12T01:15:15.087Z,34.85
2019-02-12T01:17:44.327Z,30.43
2019-02-12T01:20:14.056Z,35.57
2019-02-12T01:22:43.279Z,39.90
2019-02-12T01:25:12.514Z,41.87
2019-02-12T01:27:41.698Z,40.15
2019-02-12T01:30:13.583Z,31.43
2019-02-12T01:32:42.830Z,43.48
2019-02-12T01:35:12.047Z,40.73
2019-02-12T01:37:41.283Z,37.90
2019-02-12T01:40:12.007Z,38.86
2019-02-12T01:42:41.207Z,27.48
2019-02-12T01:45:11.501Z,37.20
2019-02-12T01:47:40.752Z,37.08
2019-02-12T01:50:12.133Z,33.84
2019-02-12T01:52:41.362Z,31.97
2019-02-12T01:55:10.571Z,36.27
2019-02-12T01:57:39.820Z,33.60
2019-02-12T02:00:13.670Z,28.87
2019-02-12T02:02:42.865Z,29.52
2019-02-12T02:05:12.056Z,32.35
2019-02-12T02:07:41.857Z,25.92
2019-02-12T02:10:15.806Z,24.45
2019-02-12T02:12:46.061Z,32.53
2019-02-12T02:15:15.306Z,21.37
2019-02-12T02:17:44.472Z,24.63
2019-02-12T02:20:14.689Z,17.35
2019-02-12T02:22:43.873Z,24.60
2019-02-12T02:25:13.380Z,19.75
2019-02-12T02:27:42.663Z,24.55
2019-02-12T02:30:13.793Z,21.52
2019-02-12T02:32:43.089Z,24.47
2019-02-12T02:35:12.615Z,29.32
2019-02-12T02:37:41.906Z,15.58
2019-02-12T02:40:11.261Z,17.17
2019-02-12T02:42:40.435Z,24.47
2019-02-12T02:45:12.039Z,17.07
2019-02-12T02:47:41.244Z,30.27
2019-02-12T02:50:10.772Z,27.54
2019-02-12T02:52:39.939Z,24.90
2019-02-12T02:55:09.295Z,22.65
2019-02-12T02:57:38.468Z,24.52
2019-02-12T03:00:10.706Z,25.12
2019-02-12T03:02:40.046Z,21.87
2019-02-12T03:05:11.612Z,26.17
2019-02-12T03:07:40.867Z,23.90
2019-02-12T03:10:12.132Z,27.70
2019-02-12T03:12:41.432Z,22.30
2019-02-12T03:15:11.255Z,27.22
2019-02-12T03:17:42.228Z,21.44
2019-02-12T03:20:12.151Z,23.98
2019-02-12T03:22:41.429Z,25.23
2019-02-12T03:25:10.683Z,24.85
2019-02-12T03:27:39.860Z,20.55
2019-02-12T03:30:11.209Z,27.10
2019-02-12T03:32:41.413Z,20.82
2019-02-12T03:35:10.768Z,20.50
2019-02-12T03:37:40.015Z,20.97
2019-02-12T03:40:11.096Z,22.85
2019-02-12T03:42:40.284Z,19.32
2019-02-12T03:45:14.023Z,19.95
2019-02-12T03:47:43.336Z,30.85
2019-02-12T03:50:12.733Z,21.77
2019-02-12T03:52:41.935Z,26.60
2019-02-12T03:55:14.038Z,21.25
2019-02-12T03:57:43.292Z,22.93
2019-02-12T04:00:16.466Z,21.25
2019-02-12T04:05:24.865Z,25.23
2019-02-12T04:07:54.101Z,20.08
2019-02-12T04:10:23.298Z,21.27
2019-02-12T04:12:52.468Z,25.00
2019-02-12T04:15:21.735Z,23.00
2019-02-12T04:17:50.936Z,25.43
2019-02-12T04:20:20.256Z,29.80
2019-02-12T04:22:49.515Z,24.77
2019-02-12T04:25:18.753Z,28.56
2019-02-12T04:27:49.012Z,23.98
2019-02-12T04:30:18.192Z,23.73
2019-02-12T04:32:47.429Z,19.17
2019-02-12T04:35:16.716Z,26.73
2019-02-12T04:37:45.877Z,22.32
2019-02-12T04:40:15.044Z,18.42
2019-02-12T04:42:44.318Z,20.27
2019-02-12T04:45:13.482Z,17.48
2019-02-12T04:47:42.733Z,26.73
2019-02-12T04:50:14.344Z,26.60
2019-02-12T04:52:43.564Z,27.65
2019-02-12T04:55:12.866Z,30.35
2019-02-12T04:57:42.097Z,18.85
2019-02-12T05:00:18.832Z,28.97
2019-02-12T05:02:47.994Z,24.32
2019-02-12T05:05:17.173Z,21.40
2019-02-12T05:07:49.121Z,26.27
2019-02-12T05:10:27.333Z,25.88
2019-02-12T05:12:56.587Z,21.27
2019-02-12T05:15:25.761Z,27.46
2019-02-12T05:17:55.565Z,20.45
2019-02-12T05:20:24.949Z,25.57
2019-02-12T05:22:54.203Z,34.03
2019-02-12T05:25:23.393Z,21.95
2019-02-12T05:27:52.582Z,22.45
2019-02-12T05:30:23.473Z,19.73
2019-02-12T05:32:52.655Z,26.75
2019-02-12T05:35:24.119Z,25.55
2019-02-12T05:37:53.360Z,25.35
2019-02-12T05:40:24.902Z,26.15
2019-02-12T05:42:54.124Z,27.93
2019-02-12T05:45:23.361Z,25.80
2019-02-12T05:47:52.612Z,20.70
2019-02-12T05:50:24.042Z,27.37
2019-02-12T05:55:25.066Z,28.90
2019-02-12T05:57:54.245Z,30.52
2019-02-12T06:00:25.142Z,22.35
2019-02-12T06:02:54.518Z,25.43
2019-02-12T06:05:26.319Z,27.97
2019-02-12T06:07:56.456Z,27.20
2019-02-12T06:10:25.625Z,30.52
2019-02-12T06:12:54.795Z,28.77
2019-02-12T06:15:24.063Z,27.62
2019-02-12T06:17:53.286Z,21.33
2019-02-12T06:20:24.633Z,22.57
2019-02-12T06:23:03.022Z,31.97
2019-02-12T06:25:24.472Z,25.27
2019-02-12T06:27:53.933Z,28.45
2019-02-12T06:30:24.390Z,24.18
2019-02-12T06:32:53.612Z,24.18
2019-02-12T06:35:25.354Z,26.07
2019-02-12T06:37:54.522Z,24.43
2019-02-12T06:40:23.708Z,23.07
2019-02-12T06:42:52.986Z,32.38
2019-02-12T06:45:22.226Z,26.17
2019-02-12T06:47:53.570Z,23.65
2019-02-12T06:50:22.804Z,35.83
2019-02-12T06:52:51.960Z,40.92
2019-02-12T06:55:21.149Z,30.85
2019-02-12T06:57:50.388Z,33.58
2019-02-12T07:00:19.560Z,39.85
2019-02-12T07:03:09.128Z,29.15
2019-02-12T07:05:41.162Z,32.30
2019-02-12T07:08:28.750Z,32.48
2019-02-12T07:11:01.292Z,36.00
2019-02-12T07:13:33.796Z,33.02
2019-02-12T07:16:06.280Z,35.95
2019-02-12T07:18:56.331Z,32.55
2019-02-12T07:21:28.784Z,25.62
2019-02-12T07:24:03.728Z,27.77
2019-02-12T07:26:41.507Z,37.35
2019-02-12T07:29:15.637Z,33.02
2019-02-12T07:32:01.885Z,35.70
2019-02-12T07:37:23.252Z,28.38
2019-02-12T07:40:04.844Z,30.08
2019-02-12T07:42:55.409Z,34.90
2019-02-12T07:45:36.991Z,31.62
2019-02-12T07:48:15.125Z,35.10
2019-02-12T07:50:53.515Z,37.65
2019-02-12T07:53:43.451Z,32.23
2019-02-12T07:56:22.071Z,33.53
2019-02-12T07:58:54.536Z,30.80
2019-02-12T08:01:27.130Z,41.45
2019-02-12T08:04:22.920Z,39.25
2019-02-12T08:07:13.425Z,31.75
2019-02-12T08:10:03.899Z,38.60
2019-02-12T08:15:47.973Z,48.05
2019-02-12T08:18:31.649Z,32.63
2019-02-12T08:21:09.523Z,42.95
2019-02-12T08:23:47.726Z,40.20
2019-02-12T08:26:23.073Z,31.95
2019-02-12T08:29:04.590Z,37.58
2019-02-12T08:31:57.751Z,37.13
2019-02-12T08:37:31.667Z,39.73
2019-02-12T08:40:20.669Z,41.28
2019-02-12T08:42:56.012Z,36.73
2019-02-12T08:46:01.861Z,47.23
2019-02-12T08:48:43.379Z,51.18
2019-02-12T08:51:24.860Z,31.03
2019-02-12T08:54:21.204Z,42.20
2019-02-12T08:57:17.579Z,36.53
2019-02-12T08:59:58.611Z,40.52
2019-02-12T09:02:46.243Z,41.13
2019-02-12T09:05:30.570Z,37.07
2019-02-12T09:08:03.190Z,30.65
2019-02-12T09:10:39.442Z,39.83
2019-02-12T09:13:21.725Z,42.10
2019-02-12T09:16:11.641Z,34.33
2019-02-12T09:19:11.019Z,39.83
2019-02-12T09:24:51.762Z,31.05
2019-02-12T09:27:30.057Z,32.58
2019-02-12T09:30:25.215Z,35.05
2019-02-12T09:33:10.199Z,39.38
2019-02-12T09:35:51.265Z,38.13
2019-02-12T09:38:40.320Z,39.78
2019-02-12T09:41:21.501Z,41.65
2019-02-12T09:44:14.676Z,41.40
2019-02-12T09:47:11.425Z,39.78
2019-02-12T09:49:59.072Z,34.70
2019-02-12T09:52:34.280Z,34.23
2019-02-12T09:58:28.860Z,30.35
2019-02-12T10:01:03.996Z,36.30
2019-02-12T10:03:36.426Z,34.95
2019-02-12T10:06:11.594Z,40.45
2019-02-12T10:08:46.718Z,33.83
2019-02-12T10:11:34.112Z,39.03
2019-02-12T10:14:18.353Z,44.98
2019-02-12T10:16:53.393Z,33.83
2019-02-12T10:19:31.417Z,37.90
2019-02-12T10:22:16.753Z,33.78
2019-02-12T10:25:04.039Z,36.88
2019-02-12T10:28:12.786Z,38.70
2019-02-12T10:30:45.348Z,35.20
2019-02-12T10:33:15.977Z,46.18
2019-02-12T10:35:46.467Z,32.05
2019-02-12T10:38:16.708Z,39.63
2019-02-12T10:40:47.713Z,31.15
2019-02-12T10:43:17.035Z,35.93
2019-02-12T10:45:46.206Z,40.17
2019-02-12T10:48:15.461Z,44.27
2019-02-12T10:50:44.725Z,38.85
2019-02-12T10:53:13.990Z,36.90
2019-02-12T10:55:43.305Z,46.65
2019-02-12T10:58:14.910Z,37.30
2019-02-12T11:00:44.120Z,37.33
2019-02-12T11:03:13.370Z,39.20
2019-02-12T11:05:42.557Z,38.17
2019-02-12T11:08:14.719Z,44.45
2019-02-12T11:10:45.122Z,37.28
2019-02-12T11:13:14.622Z,34.67
2019-02-12T11:15:43.797Z,33.60
2019-02-12T11:18:13.047Z,36.67
2019-02-12T11:20:42.282Z,32.93
2019-02-12T11:23:11.527Z,31.07
2019-02-12T11:25:40.846Z,31.48
2019-02-12T11:28:10.082Z,34.05
2019-02-12T11:30:39.375Z,31.65
2019-02-12T11:33:08.628Z,31.87
2019-02-12T11:35:37.882Z,34.95
2019-02-12T11:38:07.083Z,28.20
2019-02-12T11:40:36.349Z,31.15
2019-02-12T11:43:05.524Z,37.10
2019-02-12T11:45:34.809Z,29.72
2019-02-12T11:48:04.082Z,27.67
2019-02-12T11:50:33.286Z,30.82
2019-02-12T11:53:02.450Z,26.37
2019-02-12T11:55:31.716Z,30.20
2019-02-12T11:58:02.417Z,28.40
2019-02-12T12:00:36.431Z,32.70
2019-02-12T12:03:05.956Z,26.60
2019-02-12T12:05:38.168Z,25.40
2019-02-12T12:08:07.355Z,34.35
2019-02-12T12:10:36.523Z,22.52
2019-02-12T12:13:05.704Z,31.07
2019-02-12T12:15:34.959Z,26.45
2019-02-12T12:18:04.245Z,27.10
2019-02-12T12:20:33.505Z,24.90
2019-02-12T12:23:02.703Z,24.57
2019-02-12T12:25:31.964Z,29.63
2019-02-12T12:28:01.141Z,25.95
2019-02-12T12:30:30.420Z,29.82
2019-02-12T12:32:59.600Z,30.35
2019-02-12T12:35:28.784Z,23.50
2019-02-12T12:38:01.762Z,24.27
2019-02-12T12:40:32.581Z,25.35
2019-02-12T12:43:01.766Z,27.03
2019-02-12T12:45:32.105Z,29.32
2019-02-12T12:48:01.273Z,26.27
2019-02-12T12:50:30.612Z,25.85
2019-02-12T12:52:59.793Z,24.02
2019-02-12T12:55:28.976Z,28.40
2019-02-12T12:57:58.203Z,18.17
2019-02-12T13:00:27.452Z,22.15
2019-02-12T13:02:56.695Z,24.40
2019-02-12T13:05:26.057Z,20.40
2019-02-12T13:07:55.217Z,17.30
2019-02-12T13:10:24.565Z,27.80
2019-02-12T13:12:53.765Z,19.15
2019-02-12T13:15:23.001Z,15.55
2019-02-12T13:17:52.199Z,18.95
2019-02-12T13:20:21.365Z,21.35
2019-02-12T13:22:50.575Z,19.27
2019-02-12T13:25:19.854Z,21.95
2019-02-12T13:27:49.055Z,18.50
2019-02-12T13:30:19.383Z,17.95
2019-02-12T13:32:48.639Z,19.95
2019-02-12T13:35:17.807Z,17.30
2019-02-12T13:37:46.972Z,19.62
2019-02-12T13:40:16.176Z,15.77
2019-02-12T13:42:47.090Z,18.55
2019-02-12T13:45:16.790Z,18.53
2019-02-12T13:47:46.042Z,18.40
2019-02-12T13:50:15.232Z,20.43
2019-02-12T13:52:44.419Z,14.83
2019-02-12T13:55:17.451Z,16.30
2019-02-12T13:57:44.477Z,15.95
2019-02-12T14:00:17.694Z,19.20
2019-02-12T14:02:46.880Z,19.70
2019-02-12T14:05:19.385Z,24.20
2019-02-12T14:07:48.620Z,17.52
2019-02-12T14:10:17.881Z,16.80
2019-02-12T14:12:47.051Z,17.12
2019-02-12T14:15:16.262Z,13.00
2019-02-12T14:17:45.564Z,14.83
2019-02-12T14:20:15.934Z,15.45
2019-02-12T14:22:45.315Z,14.45
2019-02-12T14:25:15.420Z,9.78
2019-02-12T14:27:45.840Z,15.27
2019-02-12T14:30:19.503Z,14.53
2019-02-12T14:32:48.752Z,14.18
2019-02-12T14:35:17.943Z,12.60
2019-02-12T14:37:47.161Z,13.13
2019-02-12T14:40:17.298Z,10.50
2019-02-12T14:42:46.619Z,11.03
2019-02-12T14:45:17.994Z,12.15
2019-02-12T14:47:47.158Z,12.63
2019-02-12T14:50:18.952Z,16.45
2019-02-12T14:52:48.226Z,18.10
2019-02-12T14:55:17.395Z,13.38
2019-02-12T14:57:46.657Z,16.15
2019-02-12T15:00:17.480Z,15.80
2019-02-12T15:02:46.640Z,15.30
2019-02-12T15:05:15.800Z,12.00
2019-02-12T15:07:45.094Z,12.15
2019-02-12T15:10:15.901Z,17.53
2019-02-12T15:12:45.243Z,16.62
2019-02-12T15:15:14.478Z,16.32
2019-02-12T15:17:43.672Z,16.37
2019-02-12T15:20:13.283Z,14.33
2019-02-12T15:22:42.453Z,18.65
2019-02-12T15:25:12.308Z,14.25
2019-02-12T15:27:42.553Z,18.30
2019-02-12T15:30:16.636Z,19.37
2019-02-12T15:32:45.867Z,16.23
2019-02-12T15:35:15.056Z,21.75
2019-02-12T15:37:44.248Z,16.32
2019-02-12T15:40:18.688Z,19.95
2019-02-12T15:42:48.015Z,18.77
2019-02-12T15:45:20.783Z,15.87
2019-02-12T15:47:51.151Z,17.57
2019-02-12T15:50:20.318Z,21.43
2019-02-12T15:52:49.484Z,19.92
2019-02-12T15:55:18.692Z,20.70
2019-02-12T15:57:47.996Z,27.77
2019-02-12T16:00:21.633Z,26.47
2019-02-12T16:02:50.830Z,22.93
2019-02-12T16:05:20.053Z,19.73
2019-02-12T16:07:49.263Z,24.07
2019-02-12T16:10:19.919Z,23.80
2019-02-12T16:12:51.306Z,20.87
2019-02-12T16:15:24.425Z,25.82
2019-02-12T16:17:52.717Z,21.35
2019-02-12T16:20:21.902Z,18.50
2019-02-12T16:22:51.077Z,25.85
2019-02-12T16:25:22.000Z,19.63
2019-02-12T16:27:51.306Z,22.80
2019-02-12T16:30:22.199Z,26.00
2019-02-12T16:32:51.494Z,20.60
2019-02-12T16:35:20.745Z,19.02
2019-02-12T16:37:50.015Z,26.35
2019-02-12T16:40:19.207Z,26.45
2019-02-12T16:42:48.476Z,33.30
2019-02-12T16:45:23.860Z,25.63
2019-02-12T16:47:53.064Z,25.15
2019-02-12T16:50:22.302Z,25.37
2019-02-12T16:52:51.550Z,25.37
2019-02-12T16:55:20.830Z,26.68
2019-02-12T16:57:50.076Z,21.97
2019-02-12T17:00:19.332Z,32.43
2019-02-12T17:02:48.642Z,32.30
2019-02-12T17:05:18.012Z,25.43
2019-02-12T17:07:47.301Z,29.05
2019-02-12T17:10:16.807Z,28.00
2019-02-12T17:12:45.987Z,28.12
2019-02-12T17:15:15.261Z,31.70
2019-02-12T17:17:44.509Z,33.63
2019-02-12T17:20:19.389Z,31.27
2019-02-12T17:22:48.615Z,26.15
2019-02-12T17:25:17.917Z,31.82
2019-02-12T17:27:48.068Z,28.62
2019-02-12T17:30:18.212Z,27.30
2019-02-12T17:32:48.537Z,31.45
2019-02-12T17:35:17.752Z,27.00
2019-02-12T17:37:47.021Z,29.67
2019-02-12T17:40:17.648Z,28.45
2019-02-12T17:42:47.059Z,31.80
2019-02-12T17:45:18.508Z,30.15
2019-02-12T17:47:47.873Z,30.32
2019-02-12T17:50:17.164Z,37.40
2019-02-12T17:52:48.941Z,37.55
2019-02-12T17:55:18.468Z,39.33
2019-02-12T17:57:47.670Z,31.48
2019-02-12T18:00:19.751Z,40.03
2019-02-12T18:02:49.079Z,36.15
2019-02-12T18:05:18.341Z,34.25
2019-02-12T18:07:47.602Z,37.17
2019-02-12T18:10:16.867Z,40.73
2019-02-12T18:12:46.181Z,38.63
2019-02-12T18:15:15.661Z,39.83
2019-02-12T18:17:45.033Z,40.15
2019-02-12T18:20:17.123Z,44.05
2019-02-12T18:22:46.481Z,35.55
2019-02-12T18:25:15.754Z,39.48
2019-02-12T18:27:44.950Z,39.65
2019-02-12T18:30:15.803Z,45.77
2019-02-12T18:32:58.533Z,40.87
2019-02-12T18:35:18.682Z,37.50
2019-02-12T18:37:48.039Z,35.55
2019-02-12T18:40:20.118Z,35.17
2019-02-12T18:42:49.502Z,40.90
2019-02-12T18:45:23.227Z,37.28
2019-02-12T18:47:52.571Z,43.58
2019-02-12T18:50:21.957Z,39.80
2019-02-12T18:52:51.311Z,40.52
2019-02-12T18:55:21.205Z,38.67
2019-02-12T18:57:50.684Z,41.83
2019-02-12T19:00:22.325Z,34.83
2019-02-12T19:02:53.164Z,42.35
2019-02-12T19:05:22.489Z,37.27
2019-02-12T19:07:53.546Z,45.95
2019-02-12T19:10:23.075Z,36.57
2019-02-12T19:12:52.293Z,43.45
2019-02-12T19:15:22.353Z,39.63
2019-02-12T19:17:54.957Z,43.52
2019-02-12T19:20:24.609Z,36.77
2019-02-12T19:22:54.951Z,39.43
2019-02-12T19:25:24.189Z,46.15
2019-02-12T19:27:53.505Z,50.12
2019-02-12T19:30:22.832Z,39.65
2019-02-12T19:32:53.617Z,46.13
2019-02-12T19:35:22.940Z,46.88
2019-02-12T19:37:52.184Z,45.70
2019-02-12T19:40:21.511Z,42.38
2019-02-12T19:42:50.881Z,44.63
2019-02-12T19:45:21.038Z,42.62
2019-02-12T19:47:50.214Z,50.48
2019-02-12T19:50:19.392Z,43.45
2019-02-12T19:52:48.635Z,49.88
2019-02-12T19:55:17.966Z,44.80
2019-02-12T19:57:47.209Z,41.33
2019-02-12T20:00:19.320Z,42.20
2019-02-12T20:02:49.525Z,42.15
2019-02-12T20:05:19.214Z,45.48
2019-02-12T20:07:48.390Z,43.25
2019-02-12T20:10:17.623Z,39.88
2019-02-12T20:12:46.845Z,52.55
2019-02-12T20:15:18.445Z,39.78
2019-02-12T20:17:47.711Z,36.58
2019-02-12T20:20:17.045Z,45.58
2019-02-12T20:22:46.288Z,39.67
2019-02-12T20:25:15.648Z,39.18
2019-02-12T20:27:44.815Z,46.83
2019-02-12T20:30:16.388Z,43.10
2019-02-12T20:32:45.653Z,37.30
2019-02-12T20:35:19.842Z,44.65
2019-02-12T20:37:49.109Z,40.85
2019-02-12T20:40:18.389Z,40.60
2019-02-12T20:42:47.651Z,39.58
2019-02-12T20:45:18.138Z,41.50
2019-02-12T20:47:48.496Z,37.75
2019-02-12T20:50:19.299Z,38.88
2019-02-12T20:52:48.557Z,39.80
2019-02-12T20:55:17.829Z,51.58
2019-02-12T20:57:46.997Z,42.43
2019-02-12T21:00:21.497Z,42.98
2019-02-12T21:02:50.680Z,41.77
2019-02-12T21:05:20.349Z,38.40
2019-02-12T21:07:50.304Z,44.27
2019-02-12T21:10:20.624Z,44.80
2019-02-12T21:12:49.973Z,43.50
2019-02-12T21:15:29.577Z,41.37
2019-02-12T21:17:58.905Z,37.58
2019-02-12T21:20:28.086Z,44.58
2019-02-12T21:22:57.472Z,39.05
2019-02-12T21:25:27.184Z,47.45
2019-02-12T21:28:00.768Z,37.48
2019-02-12T21:30:32.206Z,39.13
2019-02-12T21:33:01.448Z,42.08
2019-02-12T21:35:30.698Z,36.55
2019-02-12T21:38:00.558Z,36.85
2019-02-12T21:40:29.778Z,37.25
2019-02-12T21:42:59.115Z,44.00
2019-02-12T21:45:36.550Z,42.38
2019-02-12T21:48:06.072Z,52.53
2019-02-12T21:50:35.280Z,39.78
2019-02-12T21:53:05.118Z,40.14
2019-02-12T21:55:34.513Z,41.75
2019-02-12T21:58:03.769Z,42.10
2019-02-12T22:00:33.055Z,40.40
2019-02-12T22:03:02.294Z,38.33
2019-02-12T22:05:31.475Z,40.88
2019-02-12T22:08:00.663Z,39.92
2019-02-12T22:10:30.288Z,44.48
2019-02-12T22:13:02.516Z,46.73
2019-02-12T22:15:31.419Z,41.87
2019-02-12T22:18:02.729Z,43.00
2019-02-12T22:20:31.639Z,44.80
2019-02-12T22:23:01.984Z,43.38
2019-02-12T22:25:33.912Z,44.38
2019-02-12T22:30:31.613Z,41.10
2019-02-12T22:33:00.961Z,38.98
2019-02-12T22:35:30.190Z,39.03
2019-02-12T22:37:59.370Z,42.20
2019-02-12T22:40:28.570Z,46.68
2019-02-12T22:42:57.731Z,44.58
2019-02-12T22:45:28.004Z,44.48
2019-02-12T22:47:57.200Z,48.45
2019-02-12T22:50:29.362Z,44.95
2019-02-12T22:55:28.643Z,42.43
2019-02-12T22:57:57.924Z,45.30
2019-02-12T23:00:48.064Z,43.25
2019-02-12T23:03:19.287Z,55.80
2019-02-12T23:05:48.663Z,46.00
2019-02-12T23:08:17.831Z,46.30
2019-02-12T23:10:48.296Z,44.13
2019-02-12T23:13:17.516Z,50.58
2019-02-12T23:15:46.820Z,49.93
2019-02-12T23:18:17.691Z,44.13
2019-02-12T23:20:46.879Z,42.58
2019-02-12T23:23:16.141Z,45.27
2019-02-12T23:25:45.470Z,44.33
2019-02-12T23:28:14.643Z,50.98
2019-02-12T23:30:46.566Z,50.92
2019-02-12T23:33:16.801Z,51.25
2019-02-12T23:35:46.019Z,48.83
2019-02-12T23:38:15.194Z,50.45
2019-02-12T23:40:44.503Z,54.23
2019-02-12T23:43:13.772Z,51.63
2019-02-12T23:45:42.952Z,52.38
2019-02-12T23:48:14.906Z,48.83
2019-02-12T23:50:44.082Z,48.35
2019-02-12T23:53:13.248Z,45.12
2019-02-12T23:55:42.453Z,45.43
2019-02-12T23:58:11.644Z,55.08
